createdAt,value
2018-05-02T00:01:12.065Z,2.23
2018-05-02T00:06:14.626Z,2.30
2018-05-02T00:11:17.183Z,4.90
2018-05-02T00:16:20.319Z,4.93
2018-05-02T00:21:22.888Z,2.17
2018-05-02T00:26:25.469Z,3.20
2018-05-02T00:31:28.039Z,1.90
2018-05-02T00:36:31.403Z,2.43
2018-05-02T00:41:33.956Z,2.10
2018-05-02T00:46:37.932Z,2.30
2018-05-02T00:51:41.317Z,2.43
2018-05-02T00:56:43.885Z,2.80
2018-05-02T01:01:47.227Z,5.93
2018-05-02T01:06:49.814Z,3.80
2018-05-02T01:11:53.133Z,2.47
2018-05-02T01:16:56.477Z,2.70
2018-05-02T01:21:59.087Z,2.33
2018-05-02T01:27:01.681Z,2.60
2018-05-02T01:32:04.248Z,2.70
2018-05-02T01:37:06.812Z,2.87
2018-05-02T01:42:09.376Z,2.80
2018-05-02T01:47:11.936Z,2.03
2018-05-02T01:52:15.346Z,2.60
2018-05-02T01:57:18.693Z,2.90
2018-05-02T02:02:21.582Z,3.27
2018-05-02T02:07:24.145Z,2.83
2018-05-02T02:12:26.725Z,3.53
2018-05-02T02:17:29.297Z,2.33
2018-05-02T02:22:31.853Z,2.70
2018-05-02T02:27:35.277Z,3.00
2018-05-02T02:32:39.025Z,2.20
2018-05-02T02:37:41.599Z,3.33
2018-05-02T02:42:44.939Z,3.50
2018-05-02T02:47:47.518Z,2.67
2018-05-02T02:52:50.857Z,3.57
2018-05-02T02:57:53.529Z,5.77
2018-05-02T03:02:56.871Z,3.47
2018-05-02T03:07:59.453Z,3.20
2018-05-02T03:13:02.789Z,2.90
2018-05-02T03:18:05.368Z,2.60
2018-05-02T03:23:07.952Z,2.87
2018-05-02T03:28:10.863Z,2.60
2018-05-02T03:33:14.189Z,4.00
2018-05-02T03:38:16.757Z,4.00
2018-05-02T03:43:19.321Z,2.53
2018-05-02T03:48:21.889Z,2.50
2018-05-02T03:53:24.484Z,2.50
2018-05-02T03:58:27.065Z,5.83
2018-05-02T04:03:42.906Z,3.87
2018-05-02T04:08:45.472Z,2.60
2018-05-02T04:13:48.810Z,2.80
2018-05-02T04:18:51.413Z,2.60
2018-05-02T04:23:53.976Z,5.63
2018-05-02T04:28:56.563Z,3.17
2018-05-02T04:33:59.141Z,3.27
2018-05-02T04:39:01.720Z,3.33
2018-05-02T04:44:04.289Z,15.97
2018-05-02T04:49:07.648Z,2.73
2018-05-02T04:54:10.659Z,6.93
2018-05-02T04:59:13.217Z,4.20
2018-05-02T05:04:15.794Z,2.73
2018-05-02T05:09:19.150Z,2.77
2018-05-02T05:14:21.811Z,4.40
2018-05-02T05:19:25.153Z,3.40
2018-05-02T05:24:27.734Z,2.70
2018-05-02T05:29:31.061Z,3.87
2018-05-02T05:34:33.740Z,2.60
2018-05-02T05:39:37.077Z,5.93
2018-05-02T05:44:39.641Z,3.80
2018-05-02T05:49:42.219Z,4.53
2018-05-02T05:54:44.835Z,10.30
2018-05-02T05:59:47.405Z,4.73
2018-05-02T06:04:50.026Z,6.20
2018-05-02T06:09:53.057Z,5.00
2018-05-02T06:14:56.621Z,6.50
2018-05-02T06:19:59.202Z,2.90
2018-05-02T06:25:02.713Z,9.93
2018-05-02T06:30:05.293Z,5.67
2018-05-02T06:35:07.865Z,4.93
2018-05-02T06:40:10.472Z,4.30
2018-05-02T06:45:13.048Z,3.00
2018-05-02T06:50:16.055Z,2.80
2018-05-02T06:55:19.573Z,3.43
2018-05-02T07:00:22.228Z,3.80
2018-05-02T07:05:24.813Z,3.23
2018-05-02T07:10:28.158Z,3.10
2018-05-02T07:15:31.212Z,4.93
2018-05-02T07:20:33.786Z,2.50
2018-05-02T07:25:36.385Z,4.17
2018-05-02T07:30:40.938Z,5.30
2018-05-02T07:35:43.529Z,4.50
2018-05-02T07:40:46.116Z,3.83
2018-05-02T07:45:48.835Z,3.63
2018-05-02T07:50:51.426Z,11.10
2018-05-02T07:55:54.521Z,11.13
2018-05-02T08:00:57.091Z,3.13
2018-05-02T08:06:00.704Z,3.10
2018-05-02T08:11:04.083Z,5.87
2018-05-02T08:16:06.637Z,8.00
2018-05-02T08:21:09.204Z,4.77
2018-05-02T08:31:55.271Z,5.07
2018-05-02T08:37:01.005Z,3.20
2018-05-02T08:42:03.935Z,3.20
2018-05-02T08:47:07.284Z,5.60
2018-05-02T08:52:10.285Z,3.67
2018-05-02T08:57:12.875Z,3.50
2018-05-02T09:07:43.876Z,3.40
2018-05-02T09:12:47.216Z,12.20
2018-05-02T09:17:49.800Z,4.27
2018-05-02T09:22:53.152Z,5.27
2018-05-02T09:27:55.748Z,6.40
2018-05-02T09:32:58.330Z,4.10
2018-05-02T09:38:00.911Z,5.00
2018-05-02T09:43:06.999Z,7.27
2018-05-02T09:48:09.575Z,6.40
2018-05-02T09:53:12.999Z,6.30
2018-05-02T09:58:15.539Z,4.83
2018-05-02T10:03:18.116Z,4.30
2018-05-02T10:08:20.678Z,7.10
2018-05-02T10:13:24.103Z,4.87
2018-05-02T10:18:27.582Z,4.20
2018-05-02T10:23:30.055Z,5.03
2018-05-02T10:28:33.013Z,6.53
2018-05-02T10:33:35.623Z,5.70
2018-05-02T10:38:38.958Z,5.97
2018-05-02T10:43:41.525Z,5.00
2018-05-02T10:48:44.092Z,5.73
2018-05-02T10:53:46.668Z,5.50
2018-05-02T10:58:49.237Z,7.03
2018-05-02T11:03:52.567Z,5.10
2018-05-02T11:08:55.132Z,7.37
2018-05-02T11:13:57.700Z,6.80
2018-05-02T11:19:00.260Z,6.20
2018-05-02T11:24:02.976Z,5.60
2018-05-02T11:29:05.574Z,8.43
2018-05-02T11:34:14.897Z,12.80
2018-05-02T11:39:18.367Z,8.40
2018-05-02T11:44:20.952Z,10.37
2018-05-02T11:49:23.563Z,6.23
2018-05-02T11:54:26.321Z,6.00
2018-05-02T11:59:29.641Z,6.87
2018-05-02T12:04:32.214Z,10.80
2018-05-02T12:09:35.643Z,5.83
2018-05-02T12:14:38.999Z,8.80
2018-05-02T12:19:43.906Z,7.87
2018-05-02T12:24:46.628Z,6.10
2018-05-02T12:29:49.206Z,6.40
2018-05-02T12:34:52.554Z,6.53
2018-05-02T12:39:55.536Z,6.10
2018-05-02T12:44:58.861Z,6.70
2018-05-02T12:50:02.205Z,8.13
2018-05-02T12:55:04.796Z,6.07
2018-05-02T13:00:07.403Z,7.87
2018-05-02T13:05:09.983Z,7.07
2018-05-02T13:10:48.093Z,7.00
2018-05-02T13:15:53.067Z,6.13
2018-05-02T13:20:55.640Z,9.53
2018-05-02T13:26:02.366Z,5.73
2018-05-02T13:31:04.937Z,9.30
2018-05-02T13:36:08.264Z,8.17
2018-05-02T13:41:10.837Z,5.50
2018-05-02T13:46:13.401Z,7.87
2018-05-02T13:51:15.961Z,6.37
2018-05-02T13:56:18.528Z,11.03
2018-05-02T14:01:21.118Z,11.27
2018-05-02T14:06:24.532Z,10.00
2018-05-02T14:11:27.092Z,7.13
2018-05-02T14:16:29.649Z,6.80
2018-05-02T14:27:00.674Z,8.37
2018-05-02T14:32:03.276Z,8.33
2018-05-02T14:37:05.860Z,7.47
2018-05-02T14:42:09.371Z,9.50
2018-05-02T14:47:12.704Z,6.97
2018-05-02T14:52:15.260Z,7.80
2018-05-02T14:57:18.678Z,6.73
2018-05-02T15:02:21.327Z,7.93
2018-05-02T15:07:23.861Z,10.90
2018-05-02T15:12:26.444Z,23.10
2018-05-02T15:17:29.033Z,15.93
2018-05-02T15:22:31.596Z,11.33
2018-05-02T15:27:34.944Z,8.10
2018-05-02T15:32:37.573Z,11.03
2018-05-02T15:37:40.116Z,10.63
2018-05-02T15:42:43.444Z,12.37
2018-05-02T15:47:46.012Z,8.53
2018-05-02T15:52:49.349Z,9.03
2018-05-02T15:57:51.931Z,10.33
2018-05-02T16:02:55.280Z,11.60
2018-05-02T16:07:57.845Z,7.77
2018-05-02T16:13:01.172Z,10.33
2018-05-02T16:18:03.744Z,13.70
2018-05-02T16:23:06.329Z,10.80
2018-05-02T16:28:08.898Z,8.47
2018-05-02T16:33:11.471Z,15.87
2018-05-02T16:38:14.054Z,9.60
2018-05-02T16:43:17.400Z,12.60
2018-05-02T16:48:19.962Z,8.93
2018-05-02T16:53:23.312Z,11.10
2018-05-02T16:58:25.884Z,9.30
2018-05-02T17:03:29.235Z,9.93
2018-05-02T17:08:31.823Z,12.17
2018-05-02T17:13:34.402Z,10.03
2018-05-02T17:18:36.982Z,11.87
2018-05-02T17:23:40.313Z,9.07
2018-05-02T17:28:43.441Z,15.00
2018-05-02T17:33:46.016Z,16.73
2018-05-02T17:38:49.368Z,19.83
2018-05-02T17:43:51.954Z,17.20
2018-05-02T17:48:54.693Z,13.53
2018-05-02T17:53:57.257Z,21.50
2018-05-02T17:58:59.844Z,15.80
2018-05-02T18:04:02.434Z,12.50
2018-05-02T18:09:05.798Z,14.60
2018-05-02T18:14:08.384Z,13.33
2018-05-02T18:19:10.994Z,15.00
2018-05-02T18:24:13.583Z,16.80
2018-05-02T18:29:16.185Z,19.60
2018-05-02T18:34:18.761Z,14.67
2018-05-02T18:39:21.370Z,16.10
2018-05-02T18:44:23.961Z,18.70
2018-05-02T18:49:26.581Z,23.83
2018-05-02T18:54:29.149Z,17.50
2018-05-02T18:59:31.737Z,14.93
2018-05-02T19:04:34.326Z,14.63
2018-05-02T19:09:37.691Z,17.43
2018-05-02T19:14:40.265Z,19.53
2018-05-02T19:19:48.580Z,15.57
2018-05-02T19:24:56.780Z,13.73
2018-05-02T19:29:59.357Z,15.70
2018-05-02T19:35:01.941Z,15.07
2018-05-02T19:40:11.160Z,14.57
2018-05-02T19:45:13.819Z,15.20
2018-05-02T19:50:16.397Z,13.87
2018-05-02T19:55:18.982Z,13.33
2018-05-02T20:00:27.214Z,17.33
2018-05-02T20:05:30.492Z,16.23
2018-05-02T20:10:39.469Z,14.70
2018-05-02T20:15:43.890Z,14.40
2018-05-02T20:20:46.460Z,14.27
2018-05-02T20:25:49.041Z,15.47
2018-05-02T20:30:51.694Z,13.97
2018-05-02T20:35:54.224Z,12.87
2018-05-02T20:40:56.818Z,17.90
2018-05-02T20:45:59.464Z,13.57
2018-05-02T20:51:02.840Z,13.80
2018-05-02T20:56:05.423Z,10.97
2018-05-02T21:01:16.115Z,13.97
2018-05-02T21:11:55.686Z,14.03
2018-05-02T21:16:58.408Z,14.30
2018-05-02T21:22:01.021Z,14.33
2018-05-02T21:27:30.817Z,10.93
2018-05-02T21:32:51.301Z,10.50
2018-05-02T21:38:21.913Z,12.40
2018-05-02T21:43:29.400Z,13.37
2018-05-02T21:48:32.201Z,14.37
2018-05-02T21:53:35.183Z,14.53
2018-05-02T21:58:42.103Z,15.73
2018-05-02T22:03:47.779Z,12.80
2018-05-02T22:08:51.321Z,13.13
2018-05-02T22:13:54.728Z,15.20
2018-05-02T22:18:59.463Z,10.77
2018-05-02T22:24:02.533Z,10.97
2018-05-02T22:29:07.454Z,12.43
2018-05-02T22:34:10.862Z,10.77
2018-05-02T22:39:13.624Z,11.87
2018-05-02T22:44:19.520Z,17.03
2018-05-02T22:49:23.071Z,14.23
2018-05-02T22:54:27.172Z,15.53
2018-05-02T22:59:30.591Z,17.67
2018-05-02T23:04:33.498Z,18.60
2018-05-02T23:09:36.661Z,16.00
2018-05-02T23:14:41.458Z,13.80
2018-05-02T23:19:45.284Z,17.97
2018-05-02T23:24:48.995Z,13.83
2018-05-02T23:29:54.044Z,12.37
2018-05-02T23:34:58.302Z,12.30
2018-05-02T23:40:03.686Z,15.10
2018-05-02T23:45:06.680Z,19.87
2018-05-02T23:50:10.997Z,15.60
2018-05-02T23:55:15.001Z,12.77
